Time;durP1;ratioP1;P1;durP2;ratioP2;P2;SDS_P1;SDS_P2;PMS_P1;PMS_P2;Temp;Humidity;BMP_temperature;BMP_pressure;BME280_temperature;BME280_humidity;BME280_pressure;Samples;Min_cycle;Max_cycle;Signal;HPM_P1;HPM_P2
2022/10/03 00:01:30;;;;;;;20.33;5.38;;;;;;;10.31;100.00;100106.34;5063891;28;20037;-84
2022/10/03 00:04:08;;;;;;;14.27;5.68;;;;;;;10.25;100.00;100097.31;5061595;28;20119;-84
2022/10/03 00:07:03;;;;;;;17.20;4.85;;;;;;;10.37;100.00;100110.91;5059646;28;20046;-83
2022/10/03 00:09:57;;;;;;;16.77;4.60;;;;;;;10.31;100.00;100106.34;5062883;28;20020;-83
2022/10/03 00:12:57;;;;;;;17.05;4.88;;;;;;;10.39;100.00;100101.06;5062326;28;20040;-81
2022/10/03 00:15:27;;;;;;;15.85;4.82;;;;;;;10.28;100.00;100090.94;5061538;28;20179;-82
2022/10/03 00:18:05;;;;;;;14.98;4.50;;;;;;;10.38;100.00;100112.53;5062641;28;20025;-85
2022/10/03 00:20:45;;;;;;;19.75;4.63;;;;;;;10.31;100.00;100090.59;5063191;28;20113;-82
2022/10/03 00:23:35;;;;;;;16.73;4.70;;;;;;;10.39;100.00;100103.69;5061977;28;20087;-84
2022/10/03 00:26:29;;;;;;;12.73;4.30;;;;;;;10.35;100.00;100106.84;5059917;28;20475;-84
2022/10/03 00:29:25;;;;;;;20.50;5.70;;;;;;;10.45;100.00;100101.44;5062199;28;20097;-84
2022/10/03 00:32:21;;;;;;;20.13;4.53;;;;;;;10.42;100.00;100102.56;5057869;28;20029;-83
2022/10/03 00:34:47;;;;;;;17.20;5.13;;;;;;;10.30;100.00;100099.44;5059288;28;20036;-85
2022/10/03 00:37:12;;;;;;;15.20;4.82;;;;;;;10.36;100.00;100098.78;5063412;28;20372;-86
2022/10/03 00:40:03;;;;;;;24.63;5.72;;;;;;;10.30;100.00;100115.19;5062069;28;20389;-84
2022/10/03 00:42:39;;;;;;;14.75;5.65;;;;;;;10.29;100.00;100118.81;5059537;28;20028;-83
2022/10/03 00:45:36;;;;;;;13.60;5.30;;;;;;;10.26;100.00;100119.16;5063370;28;20025;-85
2022/10/03 00:48:16;;;;;;;20.92;6.47;;;;;;;10.28;100.00;100093.56;5063865;28;20044;-84
2022/10/03 00:51:06;;;;;;;21.42;5.20;;;;;;;10.39;100.00;100108.94;5061686;28;20055;-84
2022/10/03 00:53:56;;;;;;;15.13;4.65;;;;;;;10.33;100.00;100109.63;5053904;28;20021;-85
2022/10/03 00:56:47;;;;;;;16.00;6.30;;;;;;;10.34;100.00;100108.63;5060556;28;20029;-85
2022/10/03 00:59:39;;;;;;;21.13;4.82;;;;;;;10.37;100.00;100105.66;5063716;28;20497;-86
2022/10/03 01:02:29;;;;;;;18.75;6.45;;;;;;;10.42;100.00;100111.28;5062942;28;20132;-85
2022/10/03 01:05:13;;;;;;;10.15;4.30;;;;;;;10.21;100.00;100095.19;5061624;28;20032;-84
2022/10/03 01:08:16;;;;;;;18.98;5.57;;;;;;;10.23;100.00;100112.41;5045386;28;20403;-85
2022/10/03 01:11:10;;;;;;;23.27;5.60;;;;;;;10.19;100.00;100108.50;5061941;28;20028;-84
2022/10/03 01:13:50;;;;;;;15.00;4.47;;;;;;;10.17;100.00;100093.88;5057520;28;20021;-84
2022/10/03 01:16:35;;;;;;;18.13;5.18;;;;;;;10.05;100.00;100081.13;5058793;28;20487;-85
2022/10/03 01:19:18;;;;;;;14.90;5.03;;;;;;;10.15;100.00;100097.50;5063101;28;20182;-86
2022/10/03 01:21:59;;;;;;;15.98;5.15;;;;;;;10.16;100.00;100103.56;5062096;28;20025;-84
2022/10/03 01:25:02;;;;;;;15.50;4.93;;;;;;;10.13;100.00;100104.72;5065745;28;20036;-84
2022/10/03 01:30:41;;;;;;;17.17;5.65;;;;;;;10.04;100.00;100105.72;5063299;28;20064;-86
2022/10/03 01:33:08;;;;;;;11.25;4.53;;;;;;;10.07;100.00;100105.38;5059637;28;20029;-86
2022/10/03 01:35:58;;;;;;;15.60;5.40;;;;;;;10.08;100.00;100107.03;5061675;28;20039;-84
2022/10/03 01:38:40;;;;;;;15.88;4.22;;;;;;;10.05;100.00;100104.72;5064671;28;20026;-84
2022/10/03 01:41:44;;;;;;;23.87;5.90;;;;;;;9.99;100.00;100102.75;5060439;28;20044;-85
2022/10/03 01:44:34;;;;;;;15.23;4.63;;;;;;;10.02;100.00;100091.91;5060057;28;20061;-84
2022/10/03 01:47:27;;;;;;;21.27;4.80;;;;;;;10.03;100.00;100109.31;5059592;28;20496;-84
2022/10/03 01:50:04;;;;;;;13.87;4.97;;;;;;;9.82;100.00;100092.25;5060200;28;20028;-84
2022/10/03 01:52:36;;;;;;;10.45;4.53;;;;;;;9.85;100.00;100110.31;5063713;28;20021;-86
2022/10/03 01:55:19;;;;;;;13.63;3.80;;;;;;;9.87;100.00;100107.50;5060813;28;20067;-85
2022/10/03 01:57:52;;;;;;;9.07;3.60;;;;;;;10.03;100.00;100117.19;5057151;28;20479;-86
2022/10/03 02:00:22;;;;;;;12.90;3.40;;;;;;;10.13;100.00;100115.22;5062654;28;20032;-85
2022/10/03 02:03:09;;;;;;;9.32;3.38;;;;;;;10.19;100.00;100116.34;5061855;28;20028;-84
2022/10/03 02:05:45;;;;;;;7.05;3.17;;;;;;;10.14;100.00;100108.16;5063293;28;20056;-84
2022/10/03 02:08:16;;;;;;;11.30;3.55;;;;;;;10.25;100.00;100114.88;5064956;28;20037;-85
2022/10/03 02:11:08;;;;;;;10.52;2.78;;;;;;;10.32;100.00;100115.84;5064159;28;20527;-83
2022/10/03 02:13:46;;;;;;;10.80;2.80;;;;;;;10.28;100.00;100115.34;5063609;28;20037;-84
2022/10/03 02:16:42;;;;;;;11.13;3.05;;;;;;;10.29;100.00;100110.94;5065470;28;20198;-83
2022/10/03 02:19:14;;;;;;;8.40;3.20;;;;;;;10.26;100.00;100119.16;5065454;28;20076;-84
2022/10/03 02:21:55;;;;;;;10.90;3.75;;;;;;;10.27;100.00;100115.53;5066783;28;20032;-84
2022/10/03 02:24:42;;;;;;;8.93;3.38;;;;;;;10.27;100.00;100139.94;5066968;28;20132;-85
2022/10/03 02:27:46;;;;;;;29.85;4.18;;;;;;;10.15;100.00;100125.56;5057653;28;20052;-84
2022/10/03 02:30:18;;;;;;;9.73;3.13;;;;;;;10.15;100.00;100128.97;5066464;28;20074;-84
2022/10/03 02:33:22;;;;;;;11.13;3.30;;;;;;;10.03;100.00;100130.31;5066131;28;20033;-84
2022/10/03 02:36:14;;;;;;;10.73;3.70;;;;;;;9.91;100.00;100136.84;5065013;28;20103;-84
2022/10/03 02:39:01;;;;;;;8.88;3.00;;;;;;;9.75;100.00;100130.59;5063321;28;20047;-85
2022/10/03 02:41:57;;;;;;;14.25;3.60;;;;;;;9.72;100.00;100128.31;5061139;28;20082;-85
2022/10/03 02:44:34;;;;;;;9.20;3.45;;;;;;;9.66;100.00;100126.34;5038616;28;20053;-85
2022/10/03 02:47:37;;;;;;;9.23;3.58;;;;;;;9.63;100.00;100132.72;5064147;28;20037;-84
2022/10/03 02:50:17;;;;;;;16.17;4.47;;;;;;;9.63;100.00;100134.50;5065406;28;20056;-86
2022/10/03 02:53:02;;;;;;;15.68;4.80;;;;;;;9.63;100.00;100129.25;5060346;28;20040;-85
2022/10/03 02:55:49;;;;;;;15.45;4.35;;;;;;;9.70;100.00;100125.03;5063837;28;20063;-86
2022/10/03 02:58:43;;;;;;;12.98;4.20;;;;;;;9.68;100.00;100122.56;5063903;28;20104;-85
2022/10/03 03:01:30;;;;;;;12.98;4.50;;;;;;;9.75;100.00;100117.50;5064880;28;20056;-84
2022/10/03 03:04:43;;;;;;;15.10;4.38;;;;;;;9.72;100.00;100126.50;5067825;28;20080;-84
2022/10/03 03:07:37;;;;;;;14.02;4.90;;;;;;;9.68;100.00;100111.25;5059262;28;20021;-86
2022/10/03 03:10:30;;;;;;;14.65;5.60;;;;;;;9.79;100.00;100124.03;5059899;28;20028;-85
2022/10/03 03:13:20;;;;;;;17.25;7.18;;;;;;;9.75;100.00;100121.94;5064810;28;20024;-85
2022/10/03 03:16:20;;;;;;;17.95;6.15;;;;;;;9.88;100.00;100114.38;5065902;28;20095;-86
2022/10/03 03:19:13;;;;;;;21.83;7.00;;;;;;;9.85;100.00;100102.44;5067881;28;20059;-84
2022/10/03 03:22:19;;;;;;;21.25;6.93;;;;;;;9.94;100.00;100105.03;5064336;28;20067;-85
2022/10/03 03:25:34;;;;;;;25.40;7.68;;;;;;;9.96;100.00;100103.06;5060928;28;20553;-84
2022/10/03 03:28:39;;;;;;;15.40;7.57;;;;;;;10.03;100.00;100103.25;5065534;28;20546;-84
2022/10/03 03:31:13;;;;;;;21.52;7.20;;;;;;;10.02;100.00;100096.38;5042065;28;20041;-85
2022/10/03 03:34:29;;;;;;;24.30;7.15;;;;;;;10.02;100.00;100102.41;5060420;28;20025;-84
2022/10/03 03:37:10;;;;;;;22.95;6.43;;;;;;;9.98;100.00;100096.69;5057242;28;20082;-84
2022/10/03 03:40:37;;;;;;;15.23;5.43;;;;;;;10.06;100.00;100093.25;5062825;28;20037;-85
2022/10/03 03:43:28;;;;;;;19.25;4.97;;;;;;;9.94;100.00;100107.66;5024015;28;20096;-85
2022/10/03 03:45:56;;;;;;;21.42;5.43;;;;;;;10.06;100.00;100111.63;5065707;28;20029;-85
2022/10/03 03:48:41;;;;;;;19.67;5.40;;;;;;;10.05;100.00;100096.03;5064378;28;20108;-86
2022/10/03 03:51:38;;;;;;;12.10;4.80;;;;;;;10.09;100.00;100105.19;5060001;28;20029;-85
2022/10/03 03:54:28;;;;;;;16.02;5.22;;;;;;;10.03;100.00;100104.06;5067251;28;20109;-86
2022/10/03 03:57:31;;;;;;;11.15;4.40;;;;;;;10.06;100.00;100095.88;5044087;28;20543;-85
2022/10/03 04:00:06;;;;;;;12.93;4.47;;;;;;;10.06;100.00;100097.66;5066321;28;20339;-85
2022/10/03 04:03:01;;;;;;;13.57;4.50;;;;;;;9.88;100.00;100089.97;5063611;28;20292;-85
2022/10/03 04:05:43;;;;;;;9.95;3.83;;;;;;;9.89;100.00;100104.72;5046015;28;20040;-85
2022/10/03 04:08:39;;;;;;;14.55;3.92;;;;;;;9.96;100.00;100097.84;5063886;28;20398;-85
2022/10/03 04:11:11;;;;;;;7.25;3.17;;;;;;;9.80;100.00;100096.84;5066909;28;20454;-85
2022/10/03 04:13:51;;;;;;;6.97;3.13;;;;;;;9.74;100.00;100105.38;5059668;28;20036;-85
2022/10/03 04:19:52;;;;;;;8.20;2.70;;;;;;;9.65;100.00;100108.97;5058738;28;20025;-86
2022/10/03 04:22:29;;;;;;;4.22;2.45;;;;;;;9.60;100.00;100103.38;5054881;28;20044;-85
2022/10/03 04:24:58;;;;;;;8.15;2.65;;;;;;;9.59;100.00;100097.31;5063997;28;20037;-85
2022/10/03 04:28:00;;;;;;;10.20;2.97;;;;;;;9.69;100.00;100102.41;5050084;28;20040;-83
2022/10/03 04:30:37;;;;;;;7.13;2.28;;;;;;;9.78;100.00;100100.63;5062298;28;20039;-83
2022/10/03 04:33:24;;;;;;;4.07;1.98;;;;;;;9.75;100.00;100091.28;5058432;28;20029;-82
2022/10/03 04:36:31;;;;;;;12.38;2.20;;;;;;;9.70;100.00;100088.31;5058901;28;20385;-86
2022/10/03 04:39:14;;;;;;;4.85;2.00;;;;;;;9.76;100.00;100087.66;5060598;28;20032;-85
2022/10/03 04:42:09;;;;;;;9.05;2.33;;;;;;;9.73;100.00;100085.38;5064909;28;20036;-84
2022/10/03 04:44:53;;;;;;;6.93;1.92;;;;;;;9.60;100.00;100082.41;5063228;28;20490;-85
2022/10/03 04:47:33;;;;;;;4.88;1.40;;;;;;;9.58;100.00;100080.75;5055450;28;20040;-85
2022/10/03 04:50:11;;;;;;;3.60;1.80;;;;;;;9.52;100.00;100075.34;5062628;28;20090;-85
2022/10/03 04:52:40;;;;;;;3.85;1.70;;;;;;;9.41;100.00;100063.38;5064371;28;20115;-85
2022/10/03 04:55:38;;;;;;;8.50;1.88;;;;;;;9.57;100.00;100073.88;5062726;28;20028;-86
2022/10/03 04:58:24;;;;;;;6.07;1.95;;;;;;;9.56;100.00;100082.72;5058917;28;20045;-84
2022/10/03 05:01:20;;;;;;;3.20;1.83;;;;;;;9.51;100.00;100082.41;5062866;28;20037;-86
2022/10/03 05:04:18;;;;;;;5.70;1.75;;;;;;;9.57;100.00;100081.75;5059220;28;20043;-85
2022/10/03 05:06:55;;;;;;;2.35;1.40;;;;;;;9.50;100.00;100075.53;5062227;28;20021;-85
2022/10/03 05:09:34;;;;;;;6.05;2.13;;;;;;;9.50;100.00;100088.63;5060245;28;20082;-86
2022/10/03 05:12:15;;;;;;;3.95;1.80;;;;;;;9.48;100.00;100082.72;5061255;28;20052;-84
2022/10/03 05:15:14;;;;;;;3.45;1.73;;;;;;;9.51;100.00;100089.44;5059224;28;20530;-85
2022/10/03 05:17:59;;;;;;;3.40;1.80;;;;;;;9.53;100.00;100077.81;5063001;28;20116;-85
2022/10/03 05:20:58;;;;;;;6.60;1.73;;;;;;;9.51;100.00;100058.81;5061756;28;20029;-84
2022/10/03 05:23:33;;;;;;;4.60;1.70;;;;;;;9.61;100.00;100073.56;5062222;28;20067;-84
2022/10/03 05:26:22;;;;;;;6.35;2.03;;;;;;;9.63;100.00;100064.56;5056035;28;20475;-84
2022/10/03 05:28:49;;;;;;;8.50;2.67;;;;;;;9.70;100.00;100072.59;5045505;28;20036;-84
2022/10/03 05:31:17;;;;;;;4.75;2.17;;;;;;;9.74;100.00;100063.41;5062258;28;20375;-86
2022/10/03 05:34:09;;;;;;;5.38;2.42;;;;;;;9.73;100.00;100056.53;5063487;28;20493;-84
2022/10/03 05:36:53;;;;;;;6.90;2.65;;;;;;;9.79;100.00;100066.34;5061589;28;20422;-86
2022/10/03 05:39:27;;;;;;;8.40;3.78;;;;;;;9.81;100.00;100061.75;5060020;28;20032;-85
2022/10/03 05:42:13;;;;;;;;;;;;;;;9.92;100.00;100080.78;5060968;28;20036;-85
2022/10/03 05:44:49;;;;;;;8.63;3.17;;;;;;;9.90;100.00;100074.91;5061214;28;19919;-84
2022/10/03 05:47:44;;;;;;;4.13;2.28;;;;;;;9.86;100.00;100059.50;5063234;28;20060;-85
2022/10/03 05:50:43;;;;;;;5.10;2.00;;;;;;;10.00;100.00;100070.28;5058984;28;20060;-84
2022/10/03 05:53:30;;;;;;;2.92;1.35;;;;;;;10.04;100.00;100062.91;5058695;28;20085;-85
2022/10/03 05:56:19;;;;;;;10.32;1.58;;;;;;;10.17;100.00;100057.16;5059341;28;20033;-85
2022/10/03 05:59:22;;;;;;;6.40;1.65;;;;;;;10.24;100.00;100056.31;5059149;28;20115;-85
2022/10/03 06:02:26;;;;;;;4.43;1.20;;;;;;;10.28;100.00;100059.44;5060480;28;20534;-86
2022/10/03 06:05:12;;;;;;;8.15;1.98;;;;;;;10.35;100.00;100062.22;5063818;28;20053;-86
2022/10/03 06:07:50;;;;;;;3.33;1.42;;;;;;;10.39;100.00;100061.69;5061313;28;20540;-85
2022/10/03 06:10:16;;;;;;;3.03;1.88;;;;;;;10.37;100.00;100058.41;5043403;28;20136;-85
2022/10/03 06:13:19;;;;;;;7.13;3.33;;;;;;;10.45;100.00;100055.00;5059004;28;20107;-85
2022/10/03 06:16:29;;;;;;;5.95;2.30;;;;;;;10.40;100.00;100047.63;5060303;28;20045;-83
2022/10/03 06:19:08;;;;;;;4.03;2.05;;;;;;;10.48;100.00;100053.84;5065023;28;20032;-86
2022/10/03 06:21:52;;;;;;;5.05;1.75;;;;;;;10.62;100.00;100065.44;5046497;28;20119;-85
2022/10/03 06:24:50;;;;;;;7.03;1.83;;;;;;;10.61;100.00;100062.00;5053992;28;20033;-85
2022/10/03 06:27:43;;;;;;;5.10;1.80;;;;;;;10.53;100.00;100051.53;5041063;28;20040;-84
2022/10/03 06:30:30;;;;;;;4.13;1.80;;;;;;;10.61;100.00;100066.44;5061807;28;20099;-85
2022/10/03 06:33:34;;;;;;;4.53;1.27;;;;;;;10.69;100.00;100064.59;5058529;28;20162;-83
2022/10/03 06:36:21;;;;;;;3.45;1.88;;;;;;;10.79;100.00;100063.56;5060919;28;20420;-85
2022/10/03 06:39:07;;;;;;;8.85;1.65;;;;;;;10.82;100.00;100055.38;5058781;28;20033;-84
2022/10/03 06:41:53;;;;;;;3.47;1.88;;;;;;;10.86;100.00;100046.97;5056246;28;20107;-85
2022/10/03 06:44:53;;;;;;;4.47;1.52;;;;;;;10.91;100.00;100051.72;5060229;28;20040;-85
2022/10/03 06:47:46;;;;;;;4.15;1.30;;;;;;;10.89;100.00;100045.81;5037924;28;20036;-86
2022/10/03 06:50:39;;;;;;;5.30;1.50;;;;;;;10.84;100.00;100030.56;5063623;28;20029;-84
2022/10/03 06:53:21;;;;;;;2.08;1.08;;;;;;;10.92;100.00;100040.22;5066903;28;20056;-83
2022/10/03 06:56:30;;;;;;;3.90;2.00;;;;;;;10.90;100.00;100039.56;5062738;28;20081;-85
2022/10/03 06:58:57;;;;;;;5.15;1.45;;;;;;;10.82;100.00;100032.53;5054674;28;20063;-84
2022/10/03 07:01:44;;;;;;;2.22;1.15;;;;;;;10.83;100.00;100049.94;5044289;28;20490;-82
2022/10/03 07:04:42;;;;;;;4.32;1.17;;;;;;;10.76;100.00;100048.16;5060093;28;20025;-83
2022/10/03 07:07:43;;;;;;;2.67;0.90;;;;;;;10.71;100.00;100051.31;5069400;28;20031;-85
2022/10/03 07:10:34;;;;;;;3.63;1.42;;;;;;;10.64;100.00;100037.22;5062489;28;20024;-83
2022/10/03 07:13:14;;;;;;;7.30;1.55;;;;;;;10.69;100.00;100048.84;5062197;28;20436;-85
2022/10/03 07:16:07;;;;;;;5.22;1.63;;;;;;;10.84;100.00;100056.03;5064231;28;20047;-85
2022/10/03 07:18:44;;;;;;;6.60;1.75;;;;;;;10.90;100.00;100051.88;5061197;28;20082;-86
2022/10/03 07:21:22;;;;;;;7.65;1.50;;;;;;;11.08;100.00;100056.88;5061144;28;20043;-86
2022/10/03 07:24:32;;;;;;;7.50;1.40;;;;;;;11.16;100.00;100045.50;5059697;28;20056;-85
2022/10/03 07:27:26;;;;;;;6.45;1.35;;;;;;;11.29;100.00;100046.56;5045382;28;20044;-87
2022/10/03 07:30:04;;;;;;;2.72;1.17;;;;;;;11.56;100.00;100041.78;5061394;28;20467;-80
2022/10/03 07:33:06;;;;;;;9.48;1.58;;;;;;;11.76;100.00;100045.75;5062469;28;20033;-86
2022/10/03 07:39:18;;;;;;;5.53;1.50;;;;;;;12.08;100.00;100057.81;5058285;28;20022;-85
2022/10/03 07:41:46;;;;;;;5.40;1.75;;;;;;;12.19;100.00;100067.09;5057607;28;20082;-85
2022/10/03 07:44:39;;;;;;;7.10;1.73;;;;;;;12.32;100.00;100068.28;5065769;28;20064;-85
2022/10/03 07:47:25;;;;;;;9.07;1.85;;;;;;;12.51;100.00;100066.94;5058951;28;20111;-86
2022/10/03 07:50:22;;;;;;;6.60;1.73;;;;;;;12.68;100.00;100071.00;5061038;28;20025;-85
2022/10/03 07:53:20;;;;;;;9.45;2.10;;;;;;;12.65;100.00;100060.84;5061196;28;20036;-86
2022/10/03 07:56:01;;;;;;;9.77;1.83;;;;;;;12.92;100.00;100066.44;5010312;28;20487;-88
2022/10/03 07:59:02;;;;;;;7.88;2.97;;;;;;;13.02;100.00;100070.63;5058495;28;20036;-86
2022/10/03 08:01:53;;;;;;;7.43;1.90;;;;;;;13.17;100.00;100063.50;5059606;28;20033;-86
2022/10/03 08:04:37;;;;;;;11.82;2.50;;;;;;;13.33;100.00;100070.34;5063157;28;20037;-86
2022/10/03 08:07:35;;;;;;;12.07;2.10;;;;;;;13.35;100.00;100064.88;5060439;28;20471;-85
2022/10/03 08:10:36;;;;;;;4.60;1.90;;;;;;;13.54;100.00;100082.75;5055875;28;20475;-85
2022/10/03 08:13:36;;;;;;;9.50;1.95;;;;;;;13.63;100.00;100082.63;5045629;28;20044;-85
2022/10/03 08:16:11;;;;;;;7.57;1.77;;;;;;;13.62;100.00;100075.72;5065739;28;20436;-84
2022/10/03 08:19:06;;;;;;;8.63;2.15;;;;;;;13.73;100.00;100077.84;5063073;28;20051;-84
2022/10/03 08:22:05;;;;;;;9.52;2.03;;;;;;;13.75;100.00;100057.34;5066199;28;20032;-84
2022/10/03 08:24:59;;;;;;;9.23;2.35;;;;;;;13.99;100.00;100069.31;5063724;28;20049;-84
2022/10/03 08:28:12;;;;;;;7.65;2.08;;;;;;;13.94;100.00;100070.91;5065218;28;20036;-85
2022/10/03 08:31:05;;;;;;;7.32;2.92;;;;;;;13.90;100.00;100072.28;5021691;28;20044;-83
2022/10/03 08:33:40;;;;;;;10.57;2.70;;;;;;;14.00;100.00;100075.44;5063319;28;20025;-82
2022/10/03 08:36:28;;;;;;;8.73;2.58;;;;;;;13.99;100.00;100074.59;5066976;28;20035;-82
2022/10/03 08:39:24;;;;;;;7.63;2.75;;;;;;;13.84;100.00;100079.16;5044149;28;20171;-82
2022/10/03 08:42:11;;;;;;;10.05;3.38;;;;;;;14.02;100.00;100067.31;5057551;28;20037;-83
2022/10/03 08:44:39;;;;;;;13.13;2.38;;;;;;;13.98;100.00;100069.53;5063733;28;20075;-86
2022/10/03 08:47:35;;;;;;;7.30;2.08;;;;;;;14.16;100.00;100050.56;5059174;28;20078;-86
2022/10/03 08:50:16;;;;;;;7.18;2.30;;;;;;;14.44;100.00;100065.56;5058341;28;20073;-85
2022/10/03 08:53:13;;;;;;;8.60;2.38;;;;;;;14.47;100.00;100048.50;5063327;28;20525;-85
2022/10/03 08:55:54;;;;;;;6.68;1.67;;;;;;;14.50;100.00;100054.22;5063292;28;20039;-84
2022/10/03 08:58:42;;;;;;;8.63;2.08;;;;;;;14.64;100.00;100051.63;5061039;28;20035;-89
2022/10/03 09:01:11;;;;;;;11.40;1.80;;;;;;;14.76;100.00;100057.22;5059110;28;20025;-84
2022/10/03 09:03:39;;;;;;;8.32;2.70;;;;;;;14.85;100.00;100048.09;5045349;28;20035;-83
2022/10/03 09:06:39;;;;;;;6.95;2.55;;;;;;;14.91;100.00;100046.50;5059397;28;20036;-84
2022/10/03 09:09:22;;;;;;;5.40;1.27;;;;;;;14.97;100.00;100045.69;5058692;28;20037;-84
2022/10/03 09:11:54;;;;;;;;;;;;;;;15.12;100.00;100053.47;5065460;28;20044;-84
2022/10/03 09:15:02;;;;;;;3.53;1.58;;;;;;;15.42;100.00;100053.13;5061936;28;19958;-84
2022/10/03 09:18:14;;;;;;;8.05;2.00;;;;;;;15.78;100.00;100046.66;5033369;28;20059;-84
2022/10/03 09:20:59;;;;;;;7.85;1.92;;;;;;;15.93;100.00;100053.59;5060936;28;20437;-84
2022/10/03 09:24:01;;;;;;;5.00;2.70;;;;;;;16.13;100.00;100057.03;5058262;28;20040;-84
2022/10/03 09:27:05;;;;;;;3.93;1.77;;;;;;;16.11;100.00;100061.75;5061314;28;20031;-86
2022/10/03 09:29:47;;;;;;;9.30;2.22;;;;;;;16.23;100.00;100059.28;5060982;28;20107;-84
2022/10/03 09:32:43;;;;;;;7.05;2.00;;;;;;;16.32;100.00;100051.09;5065833;28;20029;-88
2022/10/03 09:35:27;;;;;;;6.68;1.95;;;;;;;16.19;100.00;100047.44;5062269;28;20028;-86
2022/10/03 09:38:23;;;;;;;3.50;1.80;;;;;;;16.46;100.00;100039.44;5059628;28;20028;-85
2022/10/03 09:40:52;;;;;;;7.07;1.63;;;;;;;16.20;100.00;100035.03;5061008;28;20029;-87
2022/10/03 09:43:33;;;;;;;6.45;2.20;;;;;;;16.11;100.00;100039.72;5057304;28;20379;-86
2022/10/03 09:46:32;;;;;;;11.98;2.25;;;;;;;16.02;100.00;100023.22;5062827;28;20453;-87
2022/10/03 09:48:58;;;;;;;8.05;2.20;;;;;;;16.11;100.00;100035.25;5057775;28;20032;-88
2022/10/03 09:51:51;;;;;;;8.13;2.22;;;;;;;15.96;100.00;100021.41;5060943;28;20051;-82
2022/10/03 09:54:55;;;;;;;6.47;2.00;;;;;;;16.29;100.00;100036.41;5059448;28;20059;-88
2022/10/03 09:57:42;;;;;;;9.85;2.22;;;;;;;16.14;100.00;100034.00;5059442;28;20274;-88
2022/10/03 10:00:24;;;;;;;7.88;2.20;;;;;;;16.32;100.00;100021.94;5057163;28;20063;-88
2022/10/03 10:03:08;;;;;;;7.55;2.45;;;;;;;16.38;100.00;100013.97;5061725;28;20114;-88
2022/10/03 10:06:03;;;;;;;5.15;1.85;;;;;;;16.37;100.00;100020.31;5060215;28;20028;-88
2022/10/03 10:08:50;;;;;;;8.15;1.95;;;;;;;16.26;100.00;100015.63;5060369;28;20031;-88
2022/10/03 10:11:27;;;;;;;9.35;2.13;;;;;;;16.25;100.00;100014.84;5059560;28;20066;-88
2022/10/03 10:14:20;;;;;;;6.90;2.13;;;;;;;16.27;100.00;100004.84;5063529;28;20032;-88
2022/10/03 10:17:25;;;;;;;8.48;3.28;;;;;;;16.67;100.00;99998.56;5059258;28;20091;-88
2022/10/03 10:20:25;;;;;;;5.95;2.03;;;;;;;16.44;100.00;99999.09;5059529;28;20029;-87
2022/10/03 10:23:17;;;;;;;6.15;2.63;;;;;;;16.78;100.00;100001.59;5058913;28;20039;-87
2022/10/03 10:26:04;;;;;;;9.88;2.70;;;;;;;17.10;100.00;99999.00;5059293;28;20046;-89
2022/10/03 10:28:55;;;;;;;5.57;2.25;;;;;;;17.12;100.00;99999.59;5061720;28;20024;-88
2022/10/03 10:31:51;;;;;;;5.80;2.30;;;;;;;17.37;100.00;99999.59;5064413;28;20035;-89
2022/10/03 10:34:54;;;;;;;6.57;2.45;;;;;;;17.50;100.00;100001.38;5067653;28;20485;-89
2022/10/03 10:37:44;;;;;;;9.23;2.47;;;;;;;17.56;100.00;100004.97;5065926;28;21032;-88
2022/10/03 10:40:46;;;;;;;8.88;3.17;;;;;;;17.08;100.00;100006.34;5062197;28;20033;-89
2022/10/03 10:43:29;;;;;;;5.93;2.20;;;;;;;17.25;100.00;100007.44;5063890;28;20370;-89
2022/10/03 10:46:17;;;;;;;9.00;2.45;;;;;;;17.59;100.00;100003.75;5063885;28;20025;-88
2022/10/03 10:49:20;;;;;;;6.75;2.63;;;;;;;17.62;100.00;100001.47;5067774;28;20058;-89
2022/10/03 10:52:07;;;;;;;8.30;3.30;;;;;;;17.55;100.00;99995.38;5065348;28;20024;-83
2022/10/03 10:54:51;;;;;;;8.32;2.95;;;;;;;17.50;100.00;99988.09;5059317;28;20028;-85
2022/10/03 10:57:17;;;;;;;7.93;2.47;;;;;;;17.82;100.00;99985.34;5064855;28;20044;-86
2022/10/03 11:00:15;;;;;;;6.60;2.80;;;;;;;18.14;100.00;99973.81;5062074;28;20032;-85
2022/10/03 11:02:59;;;;;;;6.63;2.33;;;;;;;18.02;100.00;99979.06;5059173;28;20041;-86
2022/10/03 11:05:41;;;;;;;10.73;2.97;;;;;;;18.18;100.00;99958.25;5065321;28;20500;-85
2022/10/03 11:08:22;;;;;;;12.27;3.40;;;;;;;17.92;100.00;99965.47;5062748;28;20063;-87
2022/10/03 11:11:06;;;;;;;8.52;3.15;;;;;;;17.70;100.00;99949.94;5063471;28;20028;-85
2022/10/03 11:14:06;;;;;;;10.73;3.03;;;;;;;17.96;100.00;99945.38;5059623;28;20403;-87
2022/10/03 11:16:46;;;;;;;6.55;2.88;;;;;;;18.29;100.00;99938.91;5064247;28;20131;-84
2022/10/03 11:19:36;;;;;;;7.25;2.97;;;;;;;18.23;100.00;99937.97;5060430;28;20033;-86
2022/10/03 11:22:38;;;;;;;9.45;2.60;;;;;;;18.46;100.00;99936.44;5066991;28;20028;-86
2022/10/03 11:25:36;;;;;;;10.68;2.90;;;;;;;18.05;100.00;99949.38;5064174;28;20119;-86
2022/10/03 11:28:29;;;;;;;7.80;2.90;;;;;;;17.80;100.00;99942.28;5061067;28;20033;-85
2022/10/03 11:31:14;;;;;;;10.00;3.25;;;;;;;17.18;100.00;99943.03;5062478;28;20025;-85
2022/10/03 11:33:57;;;;;;;8.70;3.45;;;;;;;17.08;100.00;99945.34;5062107;28;20032;-86
2022/10/03 11:36:53;;;;;;;10.40;2.97;;;;;;;17.04;100.00;99930.88;5057487;28;20047;-85
2022/10/03 11:39:25;;;;;;;7.45;2.88;;;;;;;17.09;100.00;99933.69;5061677;28;20024;-85
2022/10/03 11:42:09;;;;;;;14.52;3.60;;;;;;;16.96;100.00;99919.50;5064027;28;20108;-86
2022/10/03 11:44:52;;;;;;;9.70;3.35;;;;;;;17.07;100.00;99922.50;5059537;28;20029;-86
2022/10/03 11:47:39;;;;;;;8.73;3.50;;;;;;;16.91;100.00;99924.63;5063804;28;20036;-87
2022/10/03 11:50:26;;;;;;;10.48;3.05;;;;;;;17.04;100.00;99931.72;5061660;28;20503;-86
2022/10/03 11:53:08;;;;;;;9.50;3.97;;;;;;;17.17;100.00;99908.75;5063297;28;20036;-86
2022/10/03 11:55:52;;;;;;;12.32;3.70;;;;;;;17.23;100.00;99906.03;5060504;28;20036;-86
2022/10/03 11:58:55;;;;;;;10.98;3.55;;;;;;;17.23;100.00;99895.44;5064727;28;20025;-87
2022/10/03 12:01:48;;;;;;;17.52;3.80;;;;;;;17.40;100.00;99884.25;5062108;28;20028;-85
2022/10/03 12:04:36;;;;;;;13.10;4.07;;;;;;;17.50;100.00;99881.94;5044120;28;20060;-88
2022/10/03 12:10:27;;;;;;;9.70;3.55;;;;;;;18.00;100.00;99882.81;5067318;28;20367;-86
2022/10/03 12:12:55;;;;;;;11.20;3.58;;;;;;;18.06;100.00;99884.59;5061461;28;20174;-86
2022/10/03 12:15:30;;;;;;;7.25;3.38;;;;;;;18.14;100.00;99886.13;5066124;28;20042;-86
2022/10/03 12:18:21;;;;;;;13.38;3.83;;;;;;;18.53;100.00;99877.88;5061664;28;20147;-88
2022/10/03 12:21:11;;;;;;;8.73;3.33;;;;;;;18.67;100.00;99867.84;5061292;28;20029;-85
2022/10/03 12:23:55;;;;;;;12.82;3.85;;;;;;;18.65;100.00;99864.63;5062929;28;20108;-85
2022/10/03 12:26:51;;;;;;;8.95;3.75;;;;;;;18.84;100.00;99858.16;5060675;28;20478;-86
2022/10/03 12:29:24;;;;;;;11.38;3.58;;;;;;;18.61;100.00;99837.66;5059159;28;20116;-85
2022/10/03 12:32:09;;;;;;;14.57;3.67;;;;;;;18.51;100.00;99848.06;5063250;28;20045;-86
2022/10/03 12:35:18;;;;;;;8.35;3.75;;;;;;;18.92;100.00;99853.53;5065859;28;20033;-85
2022/10/03 12:37:59;;;;;;;14.02;4.55;;;;;;;18.90;100.00;99853.78;5062179;28;20059;-84
2022/10/03 12:40:33;;;;;;;12.27;3.58;;;;;;;18.67;100.00;99852.72;5060769;28;20035;-85
2022/10/03 12:43:18;;;;;;;10.63;4.00;;;;;;;18.51;100.00;99842.72;5060835;28;20037;-84
2022/10/03 12:46:06;;;;;;;9.35;4.00;;;;;;;18.75;100.00;99842.78;5060187;28;20486;-85
2022/10/03 12:49:25;;;;;;;12.10;3.80;;;;;;;18.26;100.00;99841.00;5058376;28;20391;-84
2022/10/03 12:51:58;;;;;;;6.88;3.63;;;;;;;18.55;100.00;99833.25;5023494;28;20513;-84
2022/10/03 12:54:44;;;;;;;18.38;5.20;;;;;;;18.62;100.00;99828.63;5063379;28;20048;-84
2022/10/03 12:57:57;;;;;;;12.15;4.18;;;;;;;18.84;100.00;99814.78;5062006;28;20083;-85
2022/10/03 13:00:27;;;;;;;9.55;4.45;;;;;;;19.01;100.00;99800.84;5013442;28;20041;-84
2022/10/03 13:03:37;;;;;;;10.23;3.85;;;;;;;19.07;100.00;99818.56;5054443;28;20044;-85
2022/10/03 13:06:28;;;;;;;12.75;4.78;;;;;;;18.98;100.00;99813.56;5047507;28;20077;-84